90NY weather

Hopewell Airpark
Canandaigua, New York, United States

Public forecast

Using degrees Fahrenheit for public forecast. Weather courtesy of forecast.io.

Closest aviation weather report (METAR) to Hopewell Airpark

Closest report is Penn Yan Airport, 18.9 nm (35.0 km) SSE. Retrieved 2019/10/16 21:53 UTC (1 hour ago):

KPEO 162153Z AUTO 24006KT 3SM RA BR OVC050 10/09 A2953 RMK AO2 SLP999 P0008 T01000089

Closest aviation forecast (TAF) to Hopewell Airpark

Closest forecast is Greater Rochester International Airport, 22.3 nm (41.4 km) WNW. Retrieved 2019/10/16 18:24 UTC (5 hours ago):

TAF KROC 161723Z 1618/1718 25009KT 4SM RA BR OVC025 TEMPO 1618/1621 2SM RA BR OVC015 FM162200 26008KT P6SM VCSH OVC035 FM170300 26008KT P6SM VCSH BKN025 FM170600 27012G20KT P6SM VCSH OVC035 FM170800 28014G23KT 6SM -SHRA BR OVC020 FM171400 30020G33KT 3SM SHRA BR OVC012